Time;durP1;ratioP1;P1;durP2;ratioP2;P2;SDS_P1;SDS_P2;PMS_P1;PMS_P2;Temp;Humidity;BMP_temperature;BMP_pressure;BME280_temperature;BME280_humidity;BME280_pressure;Samples;Min_cycle;Max_cycle;Signal;HPM_P1;HPM_P2
2023/11/21 00:01:43;;;;;;;6.35;3.95;;;11.00;99.90;;;;;;6223227;28;20452;-85
2023/11/21 00:04:45;;;;;;;7.55;3.95;;;11.10;99.90;;;;;;6229537;28;20136;-85
2023/11/21 00:07:47;;;;;;;8.88;3.75;;;11.00;99.90;;;;;;6205974;28;20060;-85
2023/11/21 00:10:49;;;;;;;8.00;3.63;;;11.10;99.90;;;;;;6229466;28;20172;-85
2023/11/21 00:13:50;;;;;;;6.95;3.42;;;11.10;99.90;;;;;;6211322;28;20072;-84
2023/11/21 00:16:52;;;;;;;8.35;3.70;;;11.10;99.90;;;;;;6229989;28;20058;-85
2023/11/21 00:19:54;;;;;;;5.68;3.67;;;11.10;99.90;;;;;;6223286;28;20057;-85
2023/11/21 00:22:55;;;;;;;5.13;3.30;;;11.10;99.90;;;;;;6246569;28;20527;-85
2023/11/21 00:25:57;;;;;;;5.65;3.90;;;11.10;99.90;;;;;;6205542;28;20810;-86
2023/11/21 00:28:59;;;;;;;7.60;4.43;;;11.10;99.90;;;;;;6218337;28;20052;-85
2023/11/21 00:32:01;;;;;;;6.28;4.05;;;11.00;99.90;;;;;;6229250;28;20054;-86
2023/11/21 00:35:02;;;;;;;6.07;3.58;;;11.10;99.90;;;;;;6204024;28;20057;-86
2023/11/21 00:38:04;;;;;;;7.55;4.15;;;11.10;99.90;;;;;;6222089;28;20069;-84
2023/11/21 00:41:06;;;;;;;8.77;4.10;;;11.10;99.90;;;;;;6246525;28;20057;-85
2023/11/21 00:44:08;;;;;;;5.88;3.85;;;11.10;99.90;;;;;;6210010;28;20099;-85
2023/11/21 00:47:09;;;;;;;7.03;4.13;;;11.10;99.90;;;;;;6204784;28;20089;-85
2023/11/21 00:50:11;;;;;;;6.15;3.97;;;11.10;99.90;;;;;;6246278;28;20215;-85
2023/11/21 00:53:13;;;;;;;7.82;4.22;;;11.20;99.90;;;;;;6205404;28;20501;-85
2023/11/21 00:56:14;;;;;;;7.93;4.85;;;11.10;99.90;;;;;;6247039;28;20076;-86
2023/11/21 00:59:16;;;;;;;7.13;4.35;;;11.10;99.90;;;;;;6212601;28;20527;-84
2023/11/21 01:02:18;;;;;;;8.55;4.68;;;11.00;99.90;;;;;;6205678;28;20559;-84
2023/11/21 01:05:19;;;;;;;7.07;4.25;;;11.10;99.90;;;;;;6247105;28;20057;-85
2023/11/21 01:08:21;;;;;;;6.90;4.10;;;11.10;99.90;;;;;;6223040;28;20050;-85
2023/11/21 01:11:23;;;;;;;7.63;4.10;;;11.10;99.90;;;;;;6229093;28;20050;-85
2023/11/21 01:14:26;;;;;;;6.90;4.43;;;11.10;99.90;;;;;;6216856;28;20057;-84
2023/11/21 01:17:28;;;;;;;8.52;4.13;;;11.10;99.90;;;;;;6208082;28;20054;-85
2023/11/21 01:20:30;;;;;;;6.60;4.28;;;11.10;99.90;;;;;;6249012;28;20046;-86
2023/11/21 01:23:31;;;;;;;8.75;4.70;;;11.10;99.90;;;;;;6206162;28;20073;-87
2023/11/21 01:26:33;;;;;;;6.82;4.57;;;11.10;99.90;;;;;;6227690;28;20057;-85
2023/11/21 01:29:35;;;;;;;7.07;4.20;;;11.10;99.90;;;;;;6233471;28;20053;-85
2023/11/21 01:32:37;;;;;;;7.07;4.35;;;11.10;99.90;;;;;;6204930;28;20054;-85
2023/11/21 01:35:38;;;;;;;6.30;4.45;;;11.10;99.90;;;;;;6222485;28;20061;-85
2023/11/21 01:38:40;;;;;;;9.90;4.30;;;11.10;99.90;;;;;;6244995;28;20049;-85
2023/11/21 01:41:44;;;;;;;6.63;4.05;;;11.10;99.90;;;;;;6222077;28;20061;-85
2023/11/21 01:44:46;;;;;;;6.63;3.80;;;11.10;99.90;;;;;;6213179;28;20053;-86
2023/11/21 01:47:48;;;;;;;7.57;3.70;;;11.10;99.90;;;;;;6228606;28;20064;-86
2023/11/21 01:50:49;;;;;;;5.68;3.25;;;11.10;99.90;;;;;;6222490;28;20060;-86
2023/11/21 01:53:51;;;;;;;5.95;3.20;;;11.10;99.90;;;;;;6245996;28;20053;-88
2023/11/21 01:56:53;;;;;;;5.90;3.30;;;11.20;99.90;;;;;;6222073;28;20413;-85
2023/11/21 01:59:54;;;;;;;5.90;3.13;;;11.10;99.90;;;;;;6227728;28;20749;-86
2023/11/21 02:02:56;;;;;;;5.50;3.10;;;11.10;99.90;;;;;;6226992;28;20057;-85
2023/11/21 02:05:58;;;;;;;5.82;2.70;;;11.10;99.90;;;;;;6203883;28;20135;-85
2023/11/21 02:09:00;;;;;;;4.57;2.78;;;11.20;99.90;;;;;;6227422;28;20056;-86
2023/11/21 02:12:02;;;;;;;4.03;2.53;;;11.20;99.90;;;;;;6204009;28;20076;-84
2023/11/21 02:15:09;;;;;;;4.50;2.42;;;11.20;99.90;;;;;;6242691;28;20056;-85
2023/11/21 02:18:11;;;;;;;4.13;2.10;;;11.20;99.90;;;;;;6194707;28;20437;-85
2023/11/21 02:21:13;;;;;;;3.70;2.05;;;11.20;99.90;;;;;;6235845;28;20062;-85
2023/11/21 02:24:14;;;;;;;4.18;2.20;;;11.20;99.90;;;;;;6202712;28;20468;-85
2023/11/21 02:27:20;;;;;;;4.00;2.20;;;11.20;99.90;;;;;;6243824;28;20053;-85
2023/11/21 02:30:22;;;;;;;4.60;2.35;;;11.20;99.90;;;;;;6193018;28;20054;-87
2023/11/21 02:33:23;;;;;;;6.07;2.65;;;11.30;99.90;;;;;;6221997;28;20076;-85
2023/11/21 02:36:25;;;;;;;3.92;2.22;;;11.30;99.90;;;;;;6220195;28;20053;-85
2023/11/21 02:39:27;;;;;;;6.15;2.90;;;11.30;99.90;;;;;;6243677;28;20456;-85
2023/11/21 02:42:29;;;;;;;5.50;3.30;;;11.30;99.90;;;;;;6220324;28;20496;-85
2023/11/21 02:45:30;;;;;;;6.53;3.50;;;11.20;99.90;;;;;;6242216;28;20512;-85
2023/11/21 02:48:32;;;;;;;5.95;3.67;;;11.10;99.90;;;;;;6202717;28;20056;-86
2023/11/21 02:51:34;;;;;;;6.63;3.22;;;11.00;99.90;;;;;;6245197;28;20563;-86
2023/11/21 02:54:36;;;;;;;7.05;4.00;;;11.00;99.90;;;;;;6204581;28;20147;-88
2023/11/21 02:57:38;;;;;;;5.70;3.42;;;10.90;99.90;;;;;;6230000;28;20511;-87
2023/11/21 03:00:41;;;;;;;6.50;4.10;;;10.90;99.90;;;;;;6217086;28;20532;-89
2023/11/21 03:03:43;;;;;;;6.78;4.18;;;10.90;99.90;;;;;;6219626;28;20054;-89
2023/11/21 03:06:45;;;;;;;6.80;4.30;;;10.80;99.90;;;;;;6243803;28;20424;-88
2023/11/21 03:09:47;;;;;;;6.60;3.92;;;10.80;99.90;;;;;;6225708;28;20144;-87
2023/11/21 03:12:48;;;;;;;5.97;3.90;;;10.80;99.90;;;;;;6234330;28;20056;-89
2023/11/21 03:15:50;;;;;;;7.07;4.22;;;10.80;99.90;;;;;;6208718;28;20229;-89
2023/11/21 03:18:52;;;;;;;8.13;3.85;;;10.80;99.90;;;;;;6234561;28;20062;-88
2023/11/21 03:21:54;;;;;;;6.05;3.72;;;10.80;99.90;;;;;;6223636;28;20072;-88
2023/11/21 03:24:55;;;;;;;6.38;3.70;;;10.80;99.90;;;;;;6209155;28;20064;-88
2023/11/21 03:27:57;;;;;;;7.57;4.00;;;10.80;99.90;;;;;;6233840;28;20821;-88
2023/11/21 03:30:59;;;;;;;6.00;3.45;;;10.80;99.90;;;;;;6222458;28;20877;-87
2023/11/21 03:34:01;;;;;;;6.43;2.97;;;10.80;99.90;;;;;;6202486;28;20054;-87
2023/11/21 03:37:02;;;;;;;6.55;3.15;;;10.80;99.90;;;;;;6249883;28;20079;-88
2023/11/21 03:40:04;;;;;;;5.35;2.95;;;10.70;99.90;;;;;;6226704;28;20058;-87
2023/11/21 03:43:06;;;;;;;4.88;2.75;;;10.80;99.90;;;;;;6231993;28;20049;-86
2023/11/21 03:46:08;;;;;;;5.22;2.47;;;10.80;99.90;;;;;;6204239;28;20049;-87
2023/11/21 03:49:10;;;;;;;4.93;2.58;;;10.70;99.90;;;;;;6202614;28;20502;-88
2023/11/21 03:52:12;;;;;;;5.20;2.53;;;10.70;99.90;;;;;;6247665;28;20068;-86
2023/11/21 03:55:14;;;;;;;5.55;2.63;;;10.70;99.90;;;;;;6225218;28;20103;-87
2023/11/21 03:58:16;;;;;;;4.63;2.50;;;10.80;99.90;;;;;;6229258;28;20066;-85
2023/11/21 04:01:18;;;;;;;5.38;2.70;;;10.80;99.90;;;;;;6207700;28;20093;-86
2023/11/21 04:04:22;;;;;;;4.75;2.17;;;10.80;99.90;;;;;;6200764;28;20042;-86
2023/11/21 04:07:24;;;;;;;4.63;2.20;;;10.80;99.90;;;;;;6226937;28;20395;-86
2023/11/21 04:10:25;;;;;;;4.40;2.50;;;10.70;99.90;;;;;;6231856;28;20490;-86
2023/11/21 04:13:27;;;;;;;4.07;2.15;;;10.60;99.90;;;;;;6226595;28;20060;-85
2023/11/21 04:16:29;;;;;;;3.72;1.90;;;10.60;99.90;;;;;;6249544;28;20582;-87
2023/11/21 04:19:31;;;;;;;4.03;1.80;;;10.60;99.90;;;;;;6209643;28;20350;-86
2023/11/21 04:22:32;;;;;;;3.40;1.80;;;10.60;99.90;;;;;;6231369;28;20060;-86
2023/11/21 04:25:34;;;;;;;3.50;1.92;;;10.60;99.90;;;;;;6209798;28;20046;-85
2023/11/21 04:28:36;;;;;;;4.25;2.03;;;10.70;99.90;;;;;;6244746;28;20062;-87
2023/11/21 04:31:38;;;;;;;4.03;1.95;;;10.60;99.90;;;;;;6227727;28;20049;-86
2023/11/21 04:34:39;;;;;;;6.50;2.50;;;10.70;99.90;;;;;;6250392;28;20428;-88
2023/11/21 04:37:41;;;;;;;2.80;1.63;;;10.70;99.90;;;;;;6209667;28;20544;-88
2023/11/21 04:40:43;;;;;;;3.67;1.65;;;10.70;99.90;;;;;;6249789;28;20140;-87
2023/11/21 04:43:45;;;;;;;3.65;1.63;;;10.70;99.90;;;;;;6230537;28;20049;-87
2023/11/21 04:46:46;;;;;;;3.80;1.73;;;10.70;99.90;;;;;;6232187;28;20052;-86
2023/11/21 04:49:48;;;;;;;3.63;1.50;;;10.70;99.90;;;;;;6208234;28;20046;-86
2023/11/21 04:52:50;;;;;;;3.92;1.70;;;10.70;99.90;;;;;;6230185;28;20055;-86
2023/11/21 04:55:52;;;;;;;4.75;1.65;;;10.70;99.90;;;;;;6206156;28;20141;-86
2023/11/21 04:58:54;;;;;;;3.85;1.63;;;10.70;99.90;;;;;;6231566;28;20107;-85
2023/11/21 05:01:55;;;;;;;3.67;1.65;;;10.60;99.90;;;;;;6237297;28;20089;-89
2023/11/21 05:04:58;;;;;;;4.85;1.60;;;10.60;99.90;;;;;;6260443;28;20060;-86
2023/11/21 05:07:59;;;;;;;3.10;1.55;;;10.50;99.90;;;;;;6245412;28;20061;-86
2023/11/21 05:11:01;;;;;;;4.38;1.40;;;10.50;99.90;;;;;;6217201;28;20045;-87
2023/11/21 05:14:04;;;;;;;4.90;1.90;;;10.50;99.90;;;;;;6250449;28;20050;-87
2023/11/21 05:17:05;;;;;;;4.50;1.60;;;10.50;99.90;;;;;;6259317;28;20057;-87
2023/11/21 05:20:08;;;;;;;3.45;1.65;;;10.40;99.90;;;;;;6213356;28;20116;-88
2023/11/21 05:23:10;;;;;;;6.65;2.40;;;10.40;99.90;;;;;;6231146;28;20062;-87
2023/11/21 05:26:12;;;;;;;3.90;1.90;;;10.40;99.90;;;;;;6252462;28;20049;-86
2023/11/21 05:29:13;;;;;;;4.00;1.98;;;10.30;99.90;;;;;;6231539;28;20076;-87
2023/11/21 05:32:16;;;;;;;4.05;2.03;;;10.30;99.90;;;;;;6206137;28;20053;-87
2023/11/21 05:35:18;;;;;;;5.28;2.13;;;10.30;99.90;;;;;;6229468;28;20049;-87
2023/11/21 05:38:22;;;;;;;4.35;2.15;;;10.30;99.90;;;;;;6223703;28;20054;-87
2023/11/21 05:41:23;;;;;;;5.72;2.10;;;10.30;99.90;;;;;;6230068;28;20049;-87
2023/11/21 05:44:25;;;;;;;5.57;2.10;;;10.30;99.90;;;;;;6217547;28;20049;-87
2023/11/21 05:47:27;;;;;;;6.20;1.90;;;10.30;99.90;;;;;;6223816;28;20061;-88
2023/11/21 05:50:30;;;;;;;6.10;2.30;;;10.30;99.90;;;;;;6225963;28;20058;-86
2023/11/21 05:53:32;;;;;;;5.47;2.13;;;10.30;99.90;;;;;;6222022;28;20053;-86
2023/11/21 05:56:34;;;;;;;4.57;2.10;;;10.30;99.90;;;;;;6246744;28;20057;-85
2023/11/21 05:59:35;;;;;;;4.88;1.92;;;10.20;99.90;;;;;;6234137;28;20057;-87
2023/11/21 06:02:37;;;;;;;5.32;2.00;;;10.20;99.90;;;;;;6222036;28;20536;-86
2023/11/21 06:05:39;;;;;;;4.47;2.20;;;10.20;99.90;;;;;;6245048;28;20057;-87
2023/11/21 06:08:41;;;;;;;3.80;1.85;;;10.30;99.90;;;;;;6203920;28;20105;-86
2023/11/21 06:11:42;;;;;;;5.80;2.20;;;10.20;99.90;;;;;;6244923;28;20057;-86
2023/11/21 06:14:44;;;;;;;5.50;2.20;;;10.20;99.90;;;;;;6230101;28;20049;-86
2023/11/21 06:17:49;;;;;;;5.10;2.30;;;10.20;99.90;;;;;;6203599;28;20058;-86
2023/11/21 06:20:53;;;;;;;5.32;2.35;;;10.20;99.90;;;;;;6240004;28;20050;-86
2023/11/21 06:23:56;;;;;;;7.45;2.58;;;10.20;99.90;;;;;;6203158;28;20064;-85
2023/11/21 06:26:58;;;;;;;5.18;2.20;;;10.20;99.90;;;;;;6244630;28;20053;-86
2023/11/21 06:30:00;;;;;;;5.68;1.70;;;10.10;99.90;;;;;;6216017;28;20076;-85
2023/11/21 06:33:02;;;;;;;5.50;1.85;;;10.20;99.90;;;;;;6243696;28;20564;-84
2023/11/21 06:36:04;;;;;;;5.50;1.90;;;10.10;99.90;;;;;;6220736;28;20050;-85
2023/11/21 06:39:06;;;;;;;5.90;1.90;;;10.20;99.90;;;;;;6227473;28;20619;-85
2023/11/21 06:42:08;;;;;;;4.18;1.77;;;10.20;99.90;;;;;;6221508;28;20053;-86
2023/11/21 06:45:10;;;;;;;7.18;2.00;;;10.20;99.90;;;;;;6249971;28;20053;-88
2023/11/21 06:48:12;;;;;;;4.50;1.65;;;10.20;99.90;;;;;;6209274;28;20058;-84
2023/11/21 06:51:14;;;;;;;3.80;1.70;;;10.20;99.90;;;;;;6210743;28;20195;-85
2023/11/21 06:54:15;;;;;;;5.03;1.52;;;10.20;99.90;;;;;;6228497;28;20531;-84
2023/11/21 06:57:17;;;;;;;3.78;1.40;;;10.10;99.90;;;;;;6234602;28;20698;-86
2023/11/21 07:00:19;;;;;;;4.57;1.60;;;10.10;99.90;;;;;;6226614;28;20053;-85
2023/11/21 07:03:20;;;;;;;5.25;1.58;;;10.00;99.90;;;;;;6234115;28;20060;-85
2023/11/21 07:06:22;;;;;;;4.10;1.40;;;10.00;99.90;;;;;;6228238;28;20053;-86
2023/11/21 07:09:25;;;;;;;4.00;1.45;;;10.00;99.90;;;;;;6251519;28;20064;-85
2023/11/21 07:12:27;;;;;;;3.15;1.40;;;10.00;99.90;;;;;;6227575;28;20061;-85
2023/11/21 07:15:28;;;;;;;8.38;1.80;;;9.90;99.90;;;;;;6247926;28;20060;-85
2023/11/21 07:18:30;;;;;;;3.65;1.45;;;9.90;99.90;;;;;;6210402;28;20056;-85
2023/11/21 07:21:32;;;;;;;5.05;1.40;;;9.90;99.90;;;;;;6224773;28;20112;-86
2023/11/21 07:24:33;;;;;;;4.25;1.70;;;10.00;99.90;;;;;;6235799;28;20528;-85
2023/11/21 07:27:37;;;;;;;4.53;1.70;;;9.90;99.90;;;;;;6231078;28;20061;-92
2023/11/21 07:30:38;;;;;;;4.05;1.50;;;9.90;99.90;;;;;;6250915;28;20064;-89
2023/11/21 07:33:40;;;;;;;6.65;1.70;;;9.90;99.90;;;;;;6210918;28;20054;-84
2023/11/21 07:36:42;;;;;;;3.45;1.30;;;9.90;99.90;;;;;;6251920;28;20398;-85
2023/11/21 07:39:44;;;;;;;5.35;1.77;;;9.90;99.90;;;;;;6227995;28;20054;-84
2023/11/21 07:42:46;;;;;;;4.20;1.70;;;9.90;99.90;;;;;;6251109;28;20060;-84
2023/11/21 07:45:47;;;;;;;4.07;1.55;;;9.80;99.90;;;;;;6225801;28;20058;-85
2023/11/21 07:48:49;;;;;;;5.32;1.70;;;9.90;99.90;;;;;;6228728;28;20057;-84
2023/11/21 07:51:51;;;;;;;4.40;1.85;;;9.90;99.90;;;;;;6229538;28;20144;-84
2023/11/21 07:54:52;;;;;;;6.03;2.00;;;9.90;99.90;;;;;;6227206;28;20061;-84
2023/11/21 07:57:54;;;;;;;5.82;2.03;;;9.80;99.90;;;;;;6247305;28;20057;-84
2023/11/21 08:00:55;;;;;;;5.03;1.73;;;9.80;99.90;;;;;;6223236;28;20054;-84
2023/11/21 08:04:01;;;;;;;3.67;2.00;;;9.90;99.90;;;;;;6247385;28;20385;-84
2023/11/21 08:07:03;;;;;;;4.57;2.13;;;9.80;99.90;;;;;;6224025;28;20054;-85
2023/11/21 08:10:06;;;;;;;4.90;2.15;;;9.90;99.90;;;;;;6245723;28;20070;-85
2023/11/21 08:13:09;;;;;;;7.20;2.50;;;9.90;99.90;;;;;;6224031;28;20051;-91
2023/11/21 08:16:10;;;;;;;5.22;2.42;;;9.90;99.90;;;;;;6229002;28;20057;-83
2023/11/21 08:19:12;;;;;;;6.07;2.30;;;9.80;99.90;;;;;;6184030;28;20054;-86
2023/11/21 08:22:16;;;;;;;5.65;1.95;;;9.90;99.90;;;;;;6231638;28;20138;-87
2023/11/21 08:25:19;;;;;;;7.82;2.53;;;9.90;99.90;;;;;;6225698;28;20062;-85
2023/11/21 08:28:24;;;;;;;6.65;2.45;;;10.00;99.90;;;;;;6226708;28;20512;-85
2023/11/21 08:31:26;;;;;;;8.02;2.17;;;9.90;99.90;;;;;;6223479;28;20056;-86
2023/11/21 08:34:28;;;;;;;5.60;2.30;;;9.90;99.90;;;;;;6198231;28;20077;-86
2023/11/21 08:37:30;;;;;;;6.03;1.90;;;9.90;99.90;;;;;;6246241;28;20501;-85
2023/11/21 08:40:32;;;;;;;7.20;2.33;;;9.90;99.90;;;;;;6247374;28;20509;-83
2023/11/21 08:43:34;;;;;;;5.35;2.20;;;10.00;99.90;;;;;;6205151;28;20045;-79
2023/11/21 08:46:36;;;;;;;6.28;2.00;;;10.00;99.90;;;;;;6248831;28;20057;-89
2023/11/21 08:49:38;;;;;;;8.70;2.30;;;10.00;99.90;;;;;;6212956;28;20429;-90
2023/11/21 08:52:40;;;;;;;6.47;1.90;;;10.10;99.90;;;;;;6228167;28;20073;-88
2023/11/21 08:55:43;;;;;;;4.15;1.73;;;10.00;99.90;;;;;;6241160;28;20056;-89
2023/11/21 08:58:46;;;;;;;4.03;1.70;;;10.00;99.90;;;;;;6226033;28;20053;-87
2023/11/21 09:01:48;;;;;;;5.25;1.75;;;10.00;99.90;;;;;;6210413;28;20417;-89
2023/11/21 09:04:52;;;;;;;4.47;1.75;;;10.00;99.90;;;;;;6211020;28;20140;-91
2023/11/21 09:07:54;;;;;;;4.72;1.80;;;10.10;99.90;;;;;;6204040;28;20077;-90
2023/11/21 09:10:55;;;;;;;4.82;1.73;;;10.10;99.90;;;;;;6233243;28;20064;-91
2023/11/21 09:13:57;;;;;;;3.55;1.50;;;10.10;99.90;;;;;;6215351;28;20517;-89
2023/11/21 09:16:59;;;;;;;3.70;1.70;;;10.10;99.90;;;;;;6210586;28;20052;-87
2023/11/21 09:20:03;;;;;;;5.32;1.70;;;10.10;99.90;;;;;;6251003;28;20103;-89
2023/11/21 09:23:05;;;;;;;5.53;1.90;;;10.10;99.90;;;;;;6215388;28;20489;-94
2023/11/21 09:26:07;;;;;;;5.97;1.90;;;10.10;99.90;;;;;;6254875;28;20072;-94
2023/11/21 09:29:08;;;;;;;5.55;1.60;;;10.20;99.90;;;;;;6235692;28;20053;-93
2023/11/21 09:32:11;;;;;;;4.93;1.48;;;10.20;99.90;;;;;;6212915;28;20196;-86
2023/11/21 09:35:13;;;;;;;4.28;1.50;;;10.20;99.90;;;;;;6234234;28;20428;-88
2023/11/21 09:38:16;;;;;;;6.82;1.50;;;10.30;99.90;;;;;;6210629;28;20045;-91
2023/11/21 09:41:18;;;;;;;3.35;1.30;;;10.40;99.90;;;;;;6235804;28;20049;-92
2023/11/21 09:44:19;;;;;;;4.70;1.40;;;10.40;99.90;;;;;;6223303;28;20045;-90
2023/11/21 09:47:21;;;;;;;4.25;1.55;;;10.40;99.90;;;;;;6209165;28;20058;-88
2023/11/21 09:50:23;;;;;;;8.13;1.50;;;10.40;99.90;;;;;;6212751;28;20133;-92
2023/11/21 09:53:24;;;;;;;5.80;1.30;;;10.40;99.90;;;;;;6234128;28;20657;-90
2023/11/21 09:56:26;;;;;;;3.40;1.38;;;10.50;99.90;;;;;;6209727;28;20372;-91
2023/11/21 09:59:29;;;;;;;7.43;1.38;;;10.60;99.90;;;;;;6217720;28;20092;-84
2023/11/21 10:02:32;;;;;;;3.97;1.95;;;10.60;99.90;;;;;;6229348;28;20057;-84
2023/11/21 10:05:34;;;;;;;4.75;1.50;;;10.70;99.90;;;;;;6222066;28;20096;-84
2023/11/21 10:08:36;;;;;;;4.50;1.20;;;10.60;99.90;;;;;;6246568;28;20053;-86
2023/11/21 10:11:51;;;;;;;3.45;1.10;;;10.70;99.90;;;;;;6183145;28;20054;-88
2023/11/21 10:14:54;;;;;;;4.72;1.75;;;10.70;99.90;;;;;;6208411;28;20049;-86
2023/11/21 10:17:55;;;;;;;3.92;1.40;;;10.80;99.90;;;;;;6245591;28;20045;-89
2023/11/21 10:20:57;;;;;;;4.60;1.38;;;10.80;99.90;;;;;;6209420;28;20057;-84
2023/11/21 10:23:59;;;;;;;4.82;1.50;;;10.80;99.90;;;;;;6245536;28;20053;-85
2023/11/21 10:27:02;;;;;;;4.50;1.30;;;10.80;99.90;;;;;;6223055;28;20079;-86
2023/11/21 10:30:04;;;;;;;2.42;1.20;;;11.00;99.90;;;;;;6227009;28;20058;-86
2023/11/21 10:33:06;;;;;;;5.85;1.45;;;11.00;99.90;;;;;;6203880;28;20115;-90
2023/11/21 10:36:08;;;;;;;3.15;1.10;;;11.10;99.90;;;;;;6203584;28;20097;-87
2023/11/21 10:39:10;;;;;;;2.85;1.15;;;11.10;99.90;;;;;;6179389;28;20054;-93
2023/11/21 10:42:11;;;;;;;4.93;1.38;;;11.20;99.90;;;;;;6184607;28;20066;-93
2023/11/21 10:45:14;;;;;;;2.78;1.10;;;11.10;99.90;;;;;;6178620;28;20058;-90
2023/11/21 10:48:16;;;;;;;2.45;1.13;;;11.10;99.90;;;;;;6194868;28;20141;-85
2023/11/21 10:51:19;;;;;;;2.40;1.08;;;11.10;99.90;;;;;;6204688;28;20085;-85
2023/11/21 10:54:20;;;;;;;3.42;1.13;;;11.10;99.90;;;;;;6221438;28;20061;-91
2023/11/21 10:57:23;;;;;;;4.80;1.40;;;11.10;99.90;;;;;;6197894;28;20180;-88
2023/11/21 11:00:25;;;;;;;3.45;1.20;;;11.20;99.90;;;;;;6246336;28;20050;-91
2023/11/21 11:03:26;;;;;;;3.35;1.17;;;11.20;99.90;;;;;;6232397;28;20069;-94
2023/11/21 11:06:28;;;;;;;3.72;1.20;;;11.30;99.90;;;;;;6207877;28;20053;-90
2023/11/21 11:09:30;;;;;;;2.58;1.10;;;11.50;99.90;;;;;;6183927;28;20415;-95
2023/11/21 11:12:32;;;;;;;4.35;1.23;;;11.50;99.90;;;;;;6201071;28;20054;-93
2023/11/21 11:15:33;;;;;;;2.67;1.00;;;11.50;99.90;;;;;;6196389;28;20058;-91
2023/11/21 11:18:35;;;;;;;2.65;0.93;;;11.50;99.90;;;;;;6185634;28;20058;-91
2023/11/21 11:21:39;;;;;;;2.85;1.17;;;11.50;99.90;;;;;;6230713;28;20057;-93
2023/11/21 11:24:40;;;;;;;3.38;1.00;;;11.40;99.90;;;;;;6251888;28;20053;-91
2023/11/21 11:27:42;;;;;;;6.80;1.10;;;11.30;99.90;;;;;;6227569;28;20065;-93
2023/11/21 11:30:45;;;;;;;2.75;1.00;;;11.40;99.90;;;;;;6208917;28;20056;-93
2023/11/21 11:33:48;;;;;;;3.33;1.27;;;11.50;99.90;;;;;;6190530;28;20696;-93
2023/11/21 11:36:50;;;;;;;3.13;1.13;;;11.50;99.90;;;;;;6212886;28;20127;-89
2023/11/21 11:39:51;;;;;;;2.35;1.10;;;11.50;99.90;;;;;;6236009;28;20128;-91
2023/11/21 11:42:53;;;;;;;2.55;1.00;;;11.60;99.90;;;;;;6235402;28;20079;-91
2023/11/21 11:45:55;;;;;;;2.85;1.10;;;11.60;99.90;;;;;;6202337;28;20057;-91
2023/11/21 11:48:56;;;;;;;2.63;1.00;;;11.80;99.90;;;;;;6210016;28;20061;-90
2023/11/21 11:51:58;;;;;;;2.85;1.20;;;11.80;99.90;;;;;;6221454;28;20143;-91
2023/11/21 11:55:00;;;;;;;2.88;1.17;;;11.80;99.90;;;;;;6255472;28;20053;-91
2023/11/21 11:58:01;;;;;;;2.78;1.15;;;11.80;99.90;;;;;;6187434;28;20110;-87
2023/11/21 12:01:03;;;;;;;2.97;1.17;;;11.80;99.90;;;;;;6232359;28;20053;-89
2023/11/21 12:04:05;;;;;;;3.28;1.30;;;11.70;99.90;;;;;;6202674;28;20062;-89
2023/11/21 12:07:07;;;;;;;3.05;1.17;;;11.70;99.90;;;;;;6249973;28;20497;-88
2023/11/21 12:10:11;;;;;;;3.00;1.60;;;11.70;99.90;;;;;;6210569;28;20050;-88
2023/11/21 12:13:13;;;;;;;3.83;1.50;;;11.60;99.90;;;;;;6249499;28;20810;-91
2023/11/21 12:16:15;;;;;;;3.95;1.60;;;11.60;99.90;;;;;;6209344;28;20046;-89
2023/11/21 12:19:17;;;;;;;3.70;1.60;;;11.70;99.90;;;;;;6192068;28;20050;-91
2023/11/21 12:22:22;;;;;;;3.75;1.40;;;11.80;99.90;;;;;;6241558;28;20060;-89
2023/11/21 12:25:28;;;;;;;2.92;1.40;;;11.90;99.90;;;;;;6210915;28;20406;-89
2023/11/21 12:28:30;;;;;;;3.78;1.65;;;11.90;99.90;;;;;;6209501;28;20085;-89
2023/11/21 12:31:31;;;;;;;4.25;2.00;;;11.80;99.90;;;;;;6229035;28;20050;-92
2023/11/21 12:34:33;;;;;;;4.35;1.80;;;11.70;99.90;;;;;;6234054;28;20050;-92
2023/11/21 12:37:35;;;;;;;4.72;1.77;;;11.80;99.90;;;;;;6210206;28;20137;-91
2023/11/21 12:40:37;;;;;;;4.10;1.60;;;11.80;99.90;;;;;;6251406;28;20052;-92
2023/11/21 12:43:39;;;;;;;4.05;2.00;;;11.80;99.90;;;;;;6218623;28;20050;-92
2023/11/21 12:46:41;;;;;;;4.20;1.73;;;11.70;99.90;;;;;;6256704;28;20045;-94
2023/11/21 12:49:44;;;;;;;3.90;2.30;;;11.80;99.90;;;;;;6212832;28;20065;-91
2023/11/21 12:52:49;;;;;;;3.92;2.08;;;11.80;99.90;;;;;;6240258;28;20117;-94
2023/11/21 12:55:51;;;;;;;3.75;2.05;;;11.70;99.90;;;;;;6236249;28;20057;-94
2023/11/21 12:58:53;;;;;;;4.70;2.70;;;11.80;99.90;;;;;;6233620;28;20046;-92
2023/11/21 13:01:58;;;;;;;5.00;2.50;;;11.70;99.90;;;;;;6234503;28;20150;-90
2023/11/21 13:05:06;;;;;;;4.82;2.10;;;11.80;99.90;;;;;;6227053;28;20050;-93
2023/11/21 13:08:09;;;;;;;3.83;2.05;;;11.80;99.90;;;;;;6248858;28;20052;-92
2023/11/21 13:11:13;;;;;;;4.25;2.08;;;11.80;99.90;;;;;;6236780;28;20064;-91
2023/11/21 13:14:14;;;;;;;4.20;1.85;;;11.90;99.90;;;;;;6238089;28;20054;-94
2023/11/21 13:17:16;;;;;;;4.20;2.00;;;11.90;99.90;;;;;;6220957;28;20053;-93
2023/11/21 13:20:20;;;;;;;4.03;1.85;;;12.00;99.90;;;;;;6211872;28;20061;-93
2023/11/21 13:23:22;;;;;;;3.40;1.70;;;12.00;99.90;;;;;;6237716;28;20061;-94
2023/11/21 13:26:25;;;;;;;3.30;1.60;;;12.00;99.90;;;;;;6217177;28;20045;-93
2023/11/21 13:29:27;;;;;;;5.53;1.58;;;12.00;99.90;;;;;;6225683;28;20060;-94
2023/11/21 13:32:32;;;;;;;5.50;1.58;;;12.00;99.90;;;;;;6231840;28;20049;-90
2023/11/21 13:35:48;;;;;;;3.58;1.17;;;12.10;99.90;;;;;;6203713;28;20054;-92
2023/11/21 13:38:49;;;;;;;3.60;1.20;;;12.10;99.90;;;;;;6206106;28;20062;-88
2023/11/21 13:41:54;;;;;;;2.97;0.93;;;12.20;99.90;;;;;;6248793;28;20080;-93
2023/11/21 13:44:56;;;;;;;1.95;0.70;;;12.20;99.90;;;;;;6218368;28;20053;-94
2023/11/21 13:47:58;;;;;;;1.30;0.55;;;12.00;99.90;;;;;;6207414;28;20057;-86
2023/11/21 13:51:20;;;;;;;1.92;0.70;;;12.00;99.90;;;;;;6230540;28;20054;-91
2023/11/21 13:54:23;;;;;;;2.55;0.60;;;12.10;99.90;;;;;;6183282;28;20046;-90
2023/11/21 13:57:27;;;;;;;1.92;0.60;;;12.10;99.90;;;;;;6247182;28;20060;-92
2023/11/21 14:00:55;;;;;;;4.03;0.80;;;12.10;99.90;;;;;;6221365;28;20133;-91
2023/11/21 14:04:01;;;;;;;1.73;0.60;;;11.90;99.90;;;;;;6197258;28;20054;-90
2023/11/21 14:07:20;;;;;;;2.70;0.70;;;11.80;99.90;;;;;;6246586;28;20050;-91
2023/11/21 14:10:24;;;;;;;2.47;0.70;;;11.80;99.90;;;;;;6199430;28;20058;-91
2023/11/21 14:13:26;;;;;;;2.13;0.80;;;11.70;99.90;;;;;;6241970;28;20043;-92
2023/11/21 14:16:27;;;;;;;4.20;1.02;;;11.60;99.90;;;;;;6221938;28;20076;-92
2023/11/21 14:19:32;;;;;;;3.40;1.10;;;11.40;99.90;;;;;;6198903;28;20050;-90
2023/11/21 14:22:34;;;;;;;3.17;1.00;;;11.40;99.90;;;;;;6227260;28;20057;-89
2023/11/21 14:25:39;;;;;;;4.47;1.88;;;11.30;99.90;;;;;;6221386;28;20155;-91
2023/11/21 14:28:41;;;;;;;4.10;1.02;;;11.30;99.90;;;;;;6240709;28;20057;-92
2023/11/21 14:31:43;;;;;;;4.47;1.23;;;11.30;99.90;;;;;;6225966;28;20457;-89
2023/11/21 14:34:46;;;;;;;5.72;1.40;;;11.20;99.90;;;;;;6226411;28;20045;-87
2023/11/21 14:37:49;;;;;;;4.43;1.08;;;11.20;99.90;;;;;;6202051;28;20401;-88
2023/11/21 14:40:50;;;;;;;5.18;1.30;;;11.20;99.90;;;;;;6243680;28;20056;-88
2023/11/21 14:43:54;;;;;;;4.60;1.20;;;11.30;99.90;;;;;;6200303;28;20109;-87
2023/11/21 14:46:56;;;;;;;4.85;1.27;;;11.20;99.90;;;;;;6230443;28;20530;-90
2023/11/21 14:50:06;;;;;;;6.18;1.48;;;11.20;99.90;;;;;;6212982;28;20085;-87
2023/11/21 14:53:08;;;;;;;9.90;1.40;;;11.30;99.90;;;;;;6205179;28;20061;-88
2023/11/21 14:56:10;;;;;;;9.27;1.90;;;11.20;99.90;;;;;;6252025;28;20060;-90
2023/11/21 14:59:16;;;;;;;5.60;1.15;;;11.20;99.90;;;;;;6214230;28;20049;-90
2023/11/21 15:02:22;;;;;;;7.63;1.60;;;11.10;99.90;;;;;;6216735;28;20054;-92
2023/11/21 15:05:26;;;;;;;6.45;1.48;;;11.10;99.90;;;;;;6210993;28;20085;-91
2023/11/21 15:08:32;;;;;;;9.70;2.83;;;11.10;99.90;;;;;;6185990;28;20090;-90
2023/11/21 15:11:33;;;;;;;7.47;1.50;;;11.10;99.90;;;;;;6234530;28;20057;-89
2023/11/21 15:14:36;;;;;;;11.60;1.90;;;11.00;99.90;;;;;;6219920;28;20612;-87
2023/11/21 15:17:39;;;;;;;7.50;1.50;;;11.00;99.90;;;;;;6210838;28;20057;-93
2023/11/21 15:20:41;;;;;;;7.20;1.80;;;10.80;99.90;;;;;;6252868;28;20065;-93
2023/11/21 15:23:43;;;;;;;7.88;1.35;;;10.80;99.90;;;;;;6207524;28;20057;-90
2023/11/21 15:26:45;;;;;;;8.15;1.65;;;10.80;99.90;;;;;;6232339;28;20042;-91
2023/11/21 15:29:46;;;;;;;11.32;1.80;;;10.80;99.90;;;;;;6217748;28;20456;-88
2023/11/21 15:32:48;;;;;;;7.55;1.95;;;10.70;99.90;;;;;;6207387;28;20068;-90
2023/11/21 15:35:50;;;;;;;7.95;1.60;;;10.70;99.90;;;;;;6208254;28;20054;-90
2023/11/21 15:38:52;;;;;;;7.28;1.70;;;10.70;99.90;;;;;;6201587;28;20064;-89
2023/11/21 15:41:54;;;;;;;11.15;1.63;;;10.70;99.90;;;;;;6231140;28;20143;-91
2023/11/21 15:44:56;;;;;;;11.18;1.60;;;10.70;99.90;;;;;;6233783;28;20429;-87
2023/11/21 15:47:58;;;;;;;9.38;1.33;;;10.70;99.90;;;;;;6207444;28;20084;-89
2023/11/21 15:51:02;;;;;;;11.15;1.80;;;10.60;99.90;;;;;;6233282;28;20049;-92